sensor_id;sensor_type;location;lat;lon;timestamp;P1;durP1;ratioP1;P2;durP2;ratioP2
71104;SDS011;58760;48.716;8.962;2023-04-05T00:00:51;10.32;;;4.30;;
71104;SDS011;58760;48.716;8.962;2023-04-05T00:03:18;8.30;;;3.53;;
71104;SDS011;58760;48.716;8.962;2023-04-05T00:05:44;11.20;;;4.35;;
71104;SDS011;58760;48.716;8.962;2023-04-05T00:08:10;8.82;;;3.75;;
71104;SDS011;58760;48.716;8.962;2023-04-05T00:10:47;8.73;;;3.92;;
71104;SDS011;58760;48.716;8.962;2023-04-05T00:13:14;8.50;;;4.20;;
71104;SDS011;58760;48.716;8.962;2023-04-05T00:15:39;8.00;;;3.60;;
71104;SDS011;58760;48.716;8.962;2023-04-05T00:18:05;8.82;;;4.35;;
71104;SDS011;58760;48.716;8.962;2023-04-05T00:20:30;8.23;;;4.25;;
71104;SDS011;58760;48.716;8.962;2023-04-05T00:22:56;8.77;;;4.28;;
71104;SDS011;58760;48.716;8.962;2023-04-05T00:25:21;11.68;;;4.45;;
71104;SDS011;58760;48.716;8.962;2023-04-05T00:27:46;8.80;;;4.50;;
71104;SDS011;58760;48.716;8.962;2023-04-05T00:30:12;11.77;;;3.92;;
71104;SDS011;58760;48.716;8.962;2023-04-05T00:32:46;7.53;;;4.15;;
71104;SDS011;58760;48.716;8.962;2023-04-05T00:35:12;8.32;;;4.47;;
71104;SDS011;58760;48.716;8.962;2023-04-05T00:37:37;9.65;;;4.22;;
71104;SDS011;58760;48.716;8.962;2023-04-05T00:40:02;7.95;;;4.55;;
71104;SDS011;58760;48.716;8.962;2023-04-05T00:42:28;9.30;;;4.18;;
71104;SDS011;58760;48.716;8.962;2023-04-05T00:44:54;9.50;;;4.68;;
71104;SDS011;58760;48.716;8.962;2023-04-05T00:47:19;7.97;;;4.13;;
71104;SDS011;58760;48.716;8.962;2023-04-05T00:49:45;9.77;;;4.80;;
71104;SDS011;58760;48.716;8.962;2023-04-05T00:52:10;6.82;;;4.28;;
71104;SDS011;58760;48.716;8.962;2023-04-05T00:54:37;7.25;;;4.18;;
71104;SDS011;58760;48.716;8.962;2023-04-05T00:57:03;7.75;;;3.97;;
71104;SDS011;58760;48.716;8.962;2023-04-05T00:59:31;8.50;;;4.18;;
71104;SDS011;58760;48.716;8.962;2023-04-05T01:04:50;8.25;;;4.25;;
71104;SDS011;58760;48.716;8.962;2023-04-05T01:07:28;9.38;;;4.47;;
71104;SDS011;58760;48.716;8.962;2023-04-05T01:10:02;10.48;;;4.60;;
71104;SDS011;58760;48.716;8.962;2023-04-05T01:12:30;9.00;;;4.32;;
71104;SDS011;58760;48.716;8.962;2023-04-05T01:14:57;8.65;;;4.00;;
71104;SDS011;58760;48.716;8.962;2023-04-05T01:17:24;10.52;;;4.05;;
71104;SDS011;58760;48.716;8.962;2023-04-05T01:20:02;8.68;;;4.25;;
71104;SDS011;58760;48.716;8.962;2023-04-05T01:30:53;8.85;;;4.53;;
71104;SDS011;58760;48.716;8.962;2023-04-05T01:33:41;11.75;;;4.50;;
71104;SDS011;58760;48.716;8.962;2023-04-05T01:36:26;9.80;;;4.38;;
71104;SDS011;58760;48.716;8.962;2023-04-05T01:38:55;9.95;;;4.40;;
71104;SDS011;58760;48.716;8.962;2023-04-05T01:41:23;8.02;;;3.95;;
71104;SDS011;58760;48.716;8.962;2023-04-05T01:43:48;9.40;;;4.38;;
71104;SDS011;58760;48.716;8.962;2023-04-05T01:46:14;7.35;;;4.00;;
71104;SDS011;58760;48.716;8.962;2023-04-05T01:48:39;8.80;;;4.65;;
71104;SDS011;58760;48.716;8.962;2023-04-05T01:51:05;11.25;;;5.15;;
71104;SDS011;58760;48.716;8.962;2023-04-05T01:53:30;8.95;;;4.68;;
71104;SDS011;58760;48.716;8.962;2023-04-05T01:55:59;10.25;;;4.85;;
71104;SDS011;58760;48.716;8.962;2023-04-05T01:58:25;12.88;;;5.25;;
71104;SDS011;58760;48.716;8.962;2023-04-05T02:00:53;9.85;;;4.88;;
71104;SDS011;58760;48.716;8.962;2023-04-05T02:03:21;10.85;;;5.00;;
71104;SDS011;58760;48.716;8.962;2023-04-05T02:05:47;11.02;;;4.70;;
71104;SDS011;58760;48.716;8.962;2023-04-05T02:08:13;8.63;;;4.63;;
71104;SDS011;58760;48.716;8.962;2023-04-05T02:10:38;10.70;;;4.90;;
71104;SDS011;58760;48.716;8.962;2023-04-05T02:13:04;9.15;;;4.32;;
71104;SDS011;58760;48.716;8.962;2023-04-05T02:15:30;9.05;;;4.40;;
71104;SDS011;58760;48.716;8.962;2023-04-05T02:17:57;11.60;;;5.20;;
71104;SDS011;58760;48.716;8.962;2023-04-05T02:20:26;10.30;;;4.60;;
71104;SDS011;58760;48.716;8.962;2023-04-05T02:22:52;9.25;;;4.80;;
71104;SDS011;58760;48.716;8.962;2023-04-05T02:25:18;10.20;;;4.93;;
71104;SDS011;58760;48.716;8.962;2023-04-05T02:27:43;11.50;;;5.00;;
71104;SDS011;58760;48.716;8.962;2023-04-05T02:30:11;10.05;;;4.82;;
71104;SDS011;58760;48.716;8.962;2023-04-05T02:32:40;9.65;;;4.82;;
71104;SDS011;58760;48.716;8.962;2023-04-05T02:35:10;8.23;;;4.43;;
71104;SDS011;58760;48.716;8.962;2023-04-05T02:37:36;9.77;;;4.65;;
71104;SDS011;58760;48.716;8.962;2023-04-05T02:40:06;9.73;;;4.72;;
71104;SDS011;58760;48.716;8.962;2023-04-05T02:42:35;9.25;;;4.75;;
71104;SDS011;58760;48.716;8.962;2023-04-05T02:45:00;8.80;;;4.68;;
71104;SDS011;58760;48.716;8.962;2023-04-05T02:47:26;9.65;;;4.60;;
71104;SDS011;58760;48.716;8.962;2023-04-05T02:49:51;8.30;;;4.50;;
71104;SDS011;58760;48.716;8.962;2023-04-05T02:52:17;9.52;;;4.43;;
71104;SDS011;58760;48.716;8.962;2023-04-05T02:54:42;9.55;;;4.45;;
71104;SDS011;58760;48.716;8.962;2023-04-05T02:57:08;9.07;;;4.88;;
71104;SDS011;58760;48.716;8.962;2023-04-05T02:59:37;12.65;;;4.47;;
71104;SDS011;58760;48.716;8.962;2023-04-05T03:02:04;8.70;;;4.53;;
71104;SDS011;58760;48.716;8.962;2023-04-05T03:04:29;9.52;;;4.70;;
71104;SDS011;58760;48.716;8.962;2023-04-05T03:07:01;8.55;;;4.55;;
71104;SDS011;58760;48.716;8.962;2023-04-05T03:09:28;8.57;;;4.75;;
71104;SDS011;58760;48.716;8.962;2023-04-05T03:12:02;8.93;;;5.03;;
71104;SDS011;58760;48.716;8.962;2023-04-05T03:14:28;9.32;;;5.22;;
71104;SDS011;58760;48.716;8.962;2023-04-05T03:16:55;10.45;;;5.05;;
71104;SDS011;58760;48.716;8.962;2023-04-05T03:19:21;10.48;;;5.05;;
71104;SDS011;58760;48.716;8.962;2023-04-05T03:21:49;9.70;;;5.40;;
71104;SDS011;58760;48.716;8.962;2023-04-05T03:24:14;11.38;;;5.43;;
71104;SDS011;58760;48.716;8.962;2023-04-05T03:26:46;10.23;;;4.85;;
71104;SDS011;58760;48.716;8.962;2023-04-05T03:29:13;10.95;;;5.00;;
71104;SDS011;58760;48.716;8.962;2023-04-05T03:31:38;9.13;;;5.43;;
71104;SDS011;58760;48.716;8.962;2023-04-05T03:34:03;9.10;;;4.63;;
71104;SDS011;58760;48.716;8.962;2023-04-05T03:36:29;10.88;;;5.18;;
71104;SDS011;58760;48.716;8.962;2023-04-05T03:39:05;10.77;;;4.95;;
71104;SDS011;58760;48.716;8.962;2023-04-05T03:41:34;9.60;;;5.07;;
71104;SDS011;58760;48.716;8.962;2023-04-05T03:44:00;11.32;;;5.22;;
71104;SDS011;58760;48.716;8.962;2023-04-05T03:46:25;10.73;;;4.75;;
71104;SDS011;58760;48.716;8.962;2023-04-05T03:48:51;11.20;;;5.07;;
71104;SDS011;58760;48.716;8.962;2023-04-05T03:51:16;9.27;;;5.00;;
71104;SDS011;58760;48.716;8.962;2023-04-05T03:53:43;10.57;;;5.30;;
71104;SDS011;58760;48.716;8.962;2023-04-05T03:56:08;10.65;;;5.05;;
71104;SDS011;58760;48.716;8.962;2023-04-05T03:58:34;9.02;;;5.30;;
71104;SDS011;58760;48.716;8.962;2023-04-05T04:01:00;10.15;;;5.40;;
71104;SDS011;58760;48.716;8.962;2023-04-05T04:03:26;10.98;;;6.25;;
71104;SDS011;58760;48.716;8.962;2023-04-05T04:05:52;12.57;;;6.07;;
71104;SDS011;58760;48.716;8.962;2023-04-05T04:08:18;10.95;;;5.40;;
71104;SDS011;58760;48.716;8.962;2023-04-05T04:10:43;12.82;;;6.05;;
71104;SDS011;58760;48.716;8.962;2023-04-05T04:13:09;9.98;;;5.60;;
71104;SDS011;58760;48.716;8.962;2023-04-05T04:15:34;13.15;;;5.55;;
71104;SDS011;58760;48.716;8.962;2023-04-05T04:18:00;16.40;;;5.43;;
71104;SDS011;58760;48.716;8.962;2023-04-05T04:20:25;11.50;;;5.47;;
71104;SDS011;58760;48.716;8.962;2023-04-05T04:22:50;12.07;;;5.68;;
71104;SDS011;58760;48.716;8.962;2023-04-05T04:25:17;10.63;;;4.97;;
71104;SDS011;58760;48.716;8.962;2023-04-05T04:27:44;9.70;;;4.88;;
71104;SDS011;58760;48.716;8.962;2023-04-05T04:30:11;10.77;;;5.60;;
71104;SDS011;58760;48.716;8.962;2023-04-05T04:32:39;10.52;;;5.38;;
71104;SDS011;58760;48.716;8.962;2023-04-05T04:35:21;10.60;;;5.57;;
71104;SDS011;58760;48.716;8.962;2023-04-05T04:40:30;10.77;;;4.95;;
71104;SDS011;58760;48.716;8.962;2023-04-05T04:43:07;12.15;;;5.32;;
71104;SDS011;58760;48.716;8.962;2023-04-05T04:45:46;10.95;;;6.10;;
71104;SDS011;58760;48.716;8.962;2023-04-05T04:48:12;12.02;;;6.60;;
71104;SDS011;58760;48.716;8.962;2023-04-05T04:50:40;11.20;;;5.75;;
71104;SDS011;58760;48.716;8.962;2023-04-05T04:53:09;14.15;;;5.85;;
71104;SDS011;58760;48.716;8.962;2023-04-05T04:55:36;10.15;;;5.70;;
71104;SDS011;58760;48.716;8.962;2023-04-05T04:58:02;12.75;;;5.40;;
71104;SDS011;58760;48.716;8.962;2023-04-05T05:00:34;13.30;;;6.53;;
71104;SDS011;58760;48.716;8.962;2023-04-05T05:02:59;15.25;;;7.15;;
71104;SDS011;58760;48.716;8.962;2023-04-05T05:05:25;15.30;;;7.50;;
71104;SDS011;58760;48.716;8.962;2023-04-05T05:07:51;17.63;;;6.70;;
71104;SDS011;58760;48.716;8.962;2023-04-05T05:10:17;12.35;;;6.45;;
71104;SDS011;58760;48.716;8.962;2023-04-05T05:12:43;12.02;;;6.18;;
71104;SDS011;58760;48.716;8.962;2023-04-05T05:15:09;10.77;;;6.25;;
71104;SDS011;58760;48.716;8.962;2023-04-05T05:17:36;13.90;;;5.60;;
71104;SDS011;58760;48.716;8.962;2023-04-05T05:20:03;11.35;;;5.38;;
71104;SDS011;58760;48.716;8.962;2023-04-05T05:22:34;12.57;;;5.63;;
71104;SDS011;58760;48.716;8.962;2023-04-05T05:25:00;13.60;;;6.45;;
71104;SDS011;58760;48.716;8.962;2023-04-05T05:27:25;19.02;;;6.07;;
71104;SDS011;58760;48.716;8.962;2023-04-05T05:29:52;10.13;;;5.65;;
71104;SDS011;58760;48.716;8.962;2023-04-05T05:32:17;11.70;;;6.05;;
71104;SDS011;58760;48.716;8.962;2023-04-05T05:34:43;12.00;;;6.18;;
71104;SDS011;58760;48.716;8.962;2023-04-05T05:37:09;12.43;;;6.60;;
71104;SDS011;58760;48.716;8.962;2023-04-05T05:39:36;12.75;;;6.25;;
71104;SDS011;58760;48.716;8.962;2023-04-05T05:42:01;14.70;;;6.05;;
71104;SDS011;58760;48.716;8.962;2023-04-05T05:44:27;10.63;;;5.80;;
71104;SDS011;58760;48.716;8.962;2023-04-05T05:46:53;10.73;;;5.97;;
71104;SDS011;58760;48.716;8.962;2023-04-05T05:49:19;11.35;;;5.70;;
71104;SDS011;58760;48.716;8.962;2023-04-05T05:51:44;9.93;;;5.60;;
71104;SDS011;58760;48.716;8.962;2023-04-05T05:54:10;11.35;;;5.95;;
71104;SDS011;58760;48.716;8.962;2023-04-05T05:56:35;10.43;;;6.00;;
71104;SDS011;58760;48.716;8.962;2023-04-05T05:59:01;10.00;;;5.95;;
71104;SDS011;58760;48.716;8.962;2023-04-05T06:01:26;10.68;;;5.80;;
71104;SDS011;58760;48.716;8.962;2023-04-05T06:03:52;13.65;;;6.90;;
71104;SDS011;58760;48.716;8.962;2023-04-05T06:06:18;11.15;;;6.05;;
71104;SDS011;58760;48.716;8.962;2023-04-05T06:08:45;14.68;;;6.45;;
71104;SDS011;58760;48.716;8.962;2023-04-05T06:11:18;12.27;;;6.50;;
71104;SDS011;58760;48.716;8.962;2023-04-05T06:13:43;12.57;;;6.38;;
71104;SDS011;58760;48.716;8.962;2023-04-05T06:16:09;15.43;;;6.85;;
71104;SDS011;58760;48.716;8.962;2023-04-05T06:18:34;16.17;;;6.95;;
71104;SDS011;58760;48.716;8.962;2023-04-05T06:21:00;11.40;;;6.50;;
71104;SDS011;58760;48.716;8.962;2023-04-05T06:23:25;13.27;;;7.20;;
71104;SDS011;58760;48.716;8.962;2023-04-05T06:25:51;11.43;;;6.63;;
71104;SDS011;58760;48.716;8.962;2023-04-05T06:28:16;12.82;;;6.50;;
71104;SDS011;58760;48.716;8.962;2023-04-05T06:30:41;11.55;;;6.20;;
71104;SDS011;58760;48.716;8.962;2023-04-05T06:33:07;12.07;;;6.63;;
71104;SDS011;58760;48.716;8.962;2023-04-05T06:35:32;14.07;;;7.00;;
71104;SDS011;58760;48.716;8.962;2023-04-05T06:37:57;16.02;;;7.25;;
71104;SDS011;58760;48.716;8.962;2023-04-05T06:40:23;13.27;;;7.03;;
71104;SDS011;58760;48.716;8.962;2023-04-05T06:42:48;12.27;;;6.20;;
71104;SDS011;58760;48.716;8.962;2023-04-05T06:45:14;14.73;;;6.80;;
71104;SDS011;58760;48.716;8.962;2023-04-05T06:47:40;11.60;;;6.38;;
71104;SDS011;58760;48.716;8.962;2023-04-05T06:50:06;11.20;;;6.63;;
71104;SDS011;58760;48.716;8.962;2023-04-05T06:52:33;11.85;;;7.18;;
71104;SDS011;58760;48.716;8.962;2023-04-05T06:54:58;11.35;;;5.88;;
71104;SDS011;58760;48.716;8.962;2023-04-05T06:57:24;18.52;;;6.32;;
71104;SDS011;58760;48.716;8.962;2023-04-05T06:59:50;12.20;;;6.25;;
71104;SDS011;58760;48.716;8.962;2023-04-05T07:02:16;11.63;;;6.78;;
71104;SDS011;58760;48.716;8.962;2023-04-05T07:04:41;12.25;;;6.53;;
71104;SDS011;58760;48.716;8.962;2023-04-05T07:07:07;10.48;;;6.18;;
71104;SDS011;58760;48.716;8.962;2023-04-05T07:09:33;12.07;;;6.20;;
71104;SDS011;58760;48.716;8.962;2023-04-05T07:11:59;12.25;;;5.95;;
71104;SDS011;58760;48.716;8.962;2023-04-05T07:14:30;10.82;;;6.13;;
71104;SDS011;58760;48.716;8.962;2023-04-05T07:16:56;11.95;;;5.93;;
71104;SDS011;58760;48.716;8.962;2023-04-05T07:19:22;11.95;;;6.18;;
71104;SDS011;58760;48.716;8.962;2023-04-05T07:21:47;10.50;;;5.70;;
71104;SDS011;58760;48.716;8.962;2023-04-05T07:24:13;11.25;;;5.90;;
71104;SDS011;58760;48.716;8.962;2023-04-05T07:26:38;10.43;;;5.70;;
71104;SDS011;58760;48.716;8.962;2023-04-05T07:29:04;14.07;;;6.18;;
71104;SDS011;58760;48.716;8.962;2023-04-05T07:31:30;11.80;;;5.68;;
71104;SDS011;58760;48.716;8.962;2023-04-05T07:33:55;11.48;;;5.65;;
71104;SDS011;58760;48.716;8.962;2023-04-05T07:36:22;10.85;;;5.70;;
71104;SDS011;58760;48.716;8.962;2023-04-05T07:38:48;11.52;;;5.70;;
71104;SDS011;58760;48.716;8.962;2023-04-05T07:41:13;13.88;;;6.00;;
71104;SDS011;58760;48.716;8.962;2023-04-05T07:43:40;10.77;;;5.70;;
71104;SDS011;58760;48.716;8.962;2023-04-05T07:46:06;12.13;;;6.03;;
71104;SDS011;58760;48.716;8.962;2023-04-05T07:48:31;8.85;;;5.30;;
71104;SDS011;58760;48.716;8.962;2023-04-05T07:51:03;11.57;;;5.97;;
71104;SDS011;58760;48.716;8.962;2023-04-05T07:53:30;12.45;;;5.88;;
71104;SDS011;58760;48.716;8.962;2023-04-05T07:55:55;11.32;;;5.68;;
71104;SDS011;58760;48.716;8.962;2023-04-05T07:58:21;13.25;;;6.25;;
71104;SDS011;58760;48.716;8.962;2023-04-05T08:00:47;13.45;;;5.95;;
71104;SDS011;58760;48.716;8.962;2023-04-05T08:03:13;10.27;;;5.55;;
71104;SDS011;58760;48.716;8.962;2023-04-05T08:05:38;11.18;;;5.78;;
71104;SDS011;58760;48.716;8.962;2023-04-05T08:08:03;11.60;;;5.20;;
71104;SDS011;58760;48.716;8.962;2023-04-05T08:10:29;10.55;;;5.47;;
71104;SDS011;58760;48.716;8.962;2023-04-05T08:12:54;9.77;;;5.35;;
71104;SDS011;58760;48.716;8.962;2023-04-05T08:15:20;12.32;;;5.53;;
71104;SDS011;58760;48.716;8.962;2023-04-05T08:17:46;12.48;;;5.75;;
71104;SDS011;58760;48.716;8.962;2023-04-05T08:20:11;15.75;;;5.47;;
71104;SDS011;58760;48.716;8.962;2023-04-05T08:22:36;11.27;;;5.22;;
71104;SDS011;58760;48.716;8.962;2023-04-05T08:25:02;7.47;;;3.97;;
71104;SDS011;58760;48.716;8.962;2023-04-05T08:27:27;7.80;;;4.60;;
71104;SDS011;58760;48.716;8.962;2023-04-05T08:29:53;8.63;;;4.20;;
71104;SDS011;58760;48.716;8.962;2023-04-05T08:32:18;10.32;;;4.28;;
71104;SDS011;58760;48.716;8.962;2023-04-05T08:34:43;9.75;;;4.93;;
71104;SDS011;58760;48.716;8.962;2023-04-05T08:37:09;10.32;;;4.32;;
71104;SDS011;58760;48.716;8.962;2023-04-05T08:39:34;10.23;;;4.28;;
71104;SDS011;58760;48.716;8.962;2023-04-05T08:42:03;8.50;;;4.43;;
71104;SDS011;58760;48.716;8.962;2023-04-05T08:44:36;9.52;;;4.10;;
71104;SDS011;58760;48.716;8.962;2023-04-05T08:47:02;7.72;;;3.97;;
71104;SDS011;58760;48.716;8.962;2023-04-05T08:49:27;8.05;;;3.97;;
71104;SDS011;58760;48.716;8.962;2023-04-05T08:51:53;10.38;;;4.57;;
71104;SDS011;58760;48.716;8.962;2023-04-05T08:54:19;9.65;;;3.38;;
71104;SDS011;58760;48.716;8.962;2023-04-05T08:56:45;9.43;;;3.80;;
71104;SDS011;58760;48.716;8.962;2023-04-05T08:59:15;6.72;;;3.45;;
71104;SDS011;58760;48.716;8.962;2023-04-05T09:01:42;7.28;;;3.38;;
71104;SDS011;58760;48.716;8.962;2023-04-05T09:04:19;7.53;;;3.30;;
71104;SDS011;58760;48.716;8.962;2023-04-05T09:06:48;8.32;;;3.70;;
71104;SDS011;58760;48.716;8.962;2023-04-05T09:09:15;10.02;;;4.07;;
71104;SDS011;58760;48.716;8.962;2023-04-05T09:11:42;8.52;;;3.85;;
71104;SDS011;58760;48.716;8.962;2023-04-05T09:14:07;7.45;;;3.70;;
71104;SDS011;58760;48.716;8.962;2023-04-05T09:16:37;7.50;;;3.72;;
71104;SDS011;58760;48.716;8.962;2023-04-05T09:19:03;8.23;;;3.78;;
71104;SDS011;58760;48.716;8.962;2023-04-05T09:21:29;8.75;;;3.60;;
71104;SDS011;58760;48.716;8.962;2023-04-05T09:27:13;8.05;;;3.47;;
71104;SDS011;58760;48.716;8.962;2023-04-05T09:29:42;8.15;;;3.72;;
71104;SDS011;58760;48.716;8.962;2023-04-05T09:32:09;10.40;;;4.13;;
71104;SDS011;58760;48.716;8.962;2023-04-05T09:37:02;8.38;;;3.78;;
71104;SDS011;58760;48.716;8.962;2023-04-05T09:39:40;7.63;;;3.30;;
71104;SDS011;58760;48.716;8.962;2023-04-05T09:42:11;7.43;;;2.80;;
71104;SDS011;58760;48.716;8.962;2023-04-05T09:47:29;6.85;;;3.25;;
71104;SDS011;58760;48.716;8.962;2023-04-05T09:50:00;7.03;;;3.65;;
71104;SDS011;58760;48.716;8.962;2023-04-05T09:52:29;9.35;;;3.60;;
71104;SDS011;58760;48.716;8.962;2023-04-05T09:55:00;8.85;;;4.10;;
71104;SDS011;58760;48.716;8.962;2023-04-05T09:57:27;8.20;;;3.70;;
71104;SDS011;58760;48.716;8.962;2023-04-05T09:59:57;7.70;;;3.35;;
71104;SDS011;58760;48.716;8.962;2023-04-05T10:02:22;7.40;;;3.92;;
71104;SDS011;58760;48.716;8.962;2023-04-05T10:04:49;7.90;;;3.40;;
71104;SDS011;58760;48.716;8.962;2023-04-05T10:07:16;6.95;;;3.33;;
71104;SDS011;58760;48.716;8.962;2023-04-05T10:09:43;7.95;;;3.38;;
71104;SDS011;58760;48.716;8.962;2023-04-05T10:12:17;8.00;;;3.47;;
71104;SDS011;58760;48.716;8.962;2023-04-05T10:14:49;8.32;;;3.53;;
71104;SDS011;58760;48.716;8.962;2023-04-05T10:17:36;7.45;;;3.35;;
71104;SDS011;58760;48.716;8.962;2023-04-05T10:30:53;8.02;;;3.83;;
71104;SDS011;58760;48.716;8.962;2023-04-05T10:41:41;8.50;;;4.00;;
71104;SDS011;58760;48.716;8.962;2023-04-05T10:46:39;9.30;;;4.45;;
71104;SDS011;58760;48.716;8.962;2023-04-05T10:49:11;7.55;;;3.40;;
71104;SDS011;58760;48.716;8.962;2023-04-05T10:51:45;7.80;;;3.75;;
71104;SDS011;58760;48.716;8.962;2023-04-05T10:54:12;6.88;;;3.13;;
71104;SDS011;58760;48.716;8.962;2023-04-05T10:56:41;11.13;;;3.85;;
71104;SDS011;58760;48.716;8.962;2023-04-05T10:59:07;8.45;;;3.83;;
71104;SDS011;58760;48.716;8.962;2023-04-05T11:01:34;7.28;;;3.72;;
71104;SDS011;58760;48.716;8.962;2023-04-05T11:04:15;10.20;;;4.00;;
71104;SDS011;58760;48.716;8.962;2023-04-05T11:06:41;8.40;;;3.40;;
71104;SDS011;58760;48.716;8.962;2023-04-05T11:11:41;9.27;;;4.00;;
71104;SDS011;58760;48.716;8.962;2023-04-05T11:14:33;8.75;;;3.30;;
71104;SDS011;58760;48.716;8.962;2023-04-05T11:17:00;8.55;;;3.45;;
71104;SDS011;58760;48.716;8.962;2023-04-05T11:22:07;9.35;;;3.90;;
71104;SDS011;58760;48.716;8.962;2023-04-05T11:27:25;6.97;;;3.30;;
71104;SDS011;58760;48.716;8.962;2023-04-05T11:29:52;6.93;;;3.08;;
71104;SDS011;58760;48.716;8.962;2023-04-05T11:32:18;6.35;;;3.25;;
71104;SDS011;58760;48.716;8.962;2023-04-05T11:34:56;9.25;;;3.47;;
71104;SDS011;58760;48.716;8.962;2023-04-05T11:37:51;6.32;;;3.13;;
71104;SDS011;58760;48.716;8.962;2023-04-05T11:40:31;5.95;;;3.50;;
71104;SDS011;58760;48.716;8.962;2023-04-05T11:43:06;7.65;;;3.08;;
71104;SDS011;58760;48.716;8.962;2023-04-05T11:45:35;6.43;;;3.40;;
71104;SDS011;58760;48.716;8.962;2023-04-05T11:48:06;9.57;;;3.60;;
71104;SDS011;58760;48.716;8.962;2023-04-05T11:50:33;8.70;;;3.63;;
71104;SDS011;58760;48.716;8.962;2023-04-05T11:53:15;6.97;;;3.40;;
71104;SDS011;58760;48.716;8.962;2023-04-05T11:55:46;9.13;;;3.25;;
71104;SDS011;58760;48.716;8.962;2023-04-05T11:58:25;10.48;;;3.72;;
71104;SDS011;58760;48.716;8.962;2023-04-05T12:00:56;6.82;;;3.13;;
71104;SDS011;58760;48.716;8.962;2023-04-05T12:05:53;7.32;;;3.20;;
71104;SDS011;58760;48.716;8.962;2023-04-05T12:08:21;6.53;;;3.35;;
71104;SDS011;58760;48.716;8.962;2023-04-05T12:13:28;8.85;;;3.10;;
71104;SDS011;58760;48.716;8.962;2023-04-05T12:15:56;9.63;;;3.65;;
71104;SDS011;58760;48.716;8.962;2023-04-05T12:18:26;5.88;;;3.05;;
71104;SDS011;58760;48.716;8.962;2023-04-05T12:20:54;8.27;;;3.05;;
71104;SDS011;58760;48.716;8.962;2023-04-05T12:23:20;7.90;;;3.17;;
71104;SDS011;58760;48.716;8.962;2023-04-05T12:25:47;7.50;;;3.30;;
71104;SDS011;58760;48.716;8.962;2023-04-05T12:28:13;13.57;;;3.80;;
71104;SDS011;58760;48.716;8.962;2023-04-05T12:30:49;8.30;;;3.33;;
71104;SDS011;58760;48.716;8.962;2023-04-05T12:36:03;7.18;;;2.80;;
71104;SDS011;58760;48.716;8.962;2023-04-05T12:38:29;5.68;;;3.05;;
71104;SDS011;58760;48.716;8.962;2023-04-05T12:40:58;6.07;;;2.97;;
71104;SDS011;58760;48.716;8.962;2023-04-05T12:43:25;8.88;;;3.30;;
71104;SDS011;58760;48.716;8.962;2023-04-05T12:45:53;8.80;;;3.40;;
71104;SDS011;58760;48.716;8.962;2023-04-05T12:48:20;7.57;;;3.40;;
71104;SDS011;58760;48.716;8.962;2023-04-05T12:50:50;8.57;;;3.30;;
71104;SDS011;58760;48.716;8.962;2023-04-05T12:53:22;8.07;;;3.05;;
71104;SDS011;58760;48.716;8.962;2023-04-05T12:58:19;8.07;;;3.60;;
71104;SDS011;58760;48.716;8.962;2023-04-05T13:00:45;6.22;;;3.15;;
71104;SDS011;58760;48.716;8.962;2023-04-05T13:03:17;7.95;;;3.00;;
71104;SDS011;58760;48.716;8.962;2023-04-05T13:05:45;6.57;;;3.17;;
71104;SDS011;58760;48.716;8.962;2023-04-05T13:08:12;6.93;;;3.22;;
71104;SDS011;58760;48.716;8.962;2023-04-05T13:10:38;9.30;;;3.35;;
71104;SDS011;58760;48.716;8.962;2023-04-05T13:13:03;6.70;;;3.30;;
71104;SDS011;58760;48.716;8.962;2023-04-05T13:15:28;7.95;;;3.35;;
71104;SDS011;58760;48.716;8.962;2023-04-05T13:17:54;9.38;;;3.63;;
71104;SDS011;58760;48.716;8.962;2023-04-05T13:20:20;5.80;;;3.05;;
71104;SDS011;58760;48.716;8.962;2023-04-05T13:22:45;7.00;;;3.22;;
71104;SDS011;58760;48.716;8.962;2023-04-05T13:25:11;7.25;;;3.58;;
71104;SDS011;58760;48.716;8.962;2023-04-05T13:27:38;10.10;;;3.90;;
71104;SDS011;58760;48.716;8.962;2023-04-05T13:30:03;7.20;;;3.80;;
71104;SDS011;58760;48.716;8.962;2023-04-05T13:34:54;6.28;;;3.40;;
71104;SDS011;58760;48.716;8.962;2023-04-05T13:37:20;11.77;;;3.40;;
71104;SDS011;58760;48.716;8.962;2023-04-05T13:39:45;6.70;;;3.47;;
71104;SDS011;58760;48.716;8.962;2023-04-05T13:42:11;7.82;;;3.38;;
71104;SDS011;58760;48.716;8.962;2023-04-05T13:44:36;9.32;;;3.78;;
71104;SDS011;58760;48.716;8.962;2023-04-05T13:47:02;6.93;;;3.50;;
71104;SDS011;58760;48.716;8.962;2023-04-05T13:49:27;7.03;;;3.15;;
71104;SDS011;58760;48.716;8.962;2023-04-05T13:51:53;7.72;;;3.80;;
71104;SDS011;58760;48.716;8.962;2023-04-05T13:54:18;7.00;;;4.05;;
71104;SDS011;58760;48.716;8.962;2023-04-05T13:59:09;8.80;;;3.80;;
71104;SDS011;58760;48.716;8.962;2023-04-05T14:04:00;6.30;;;3.67;;
71104;SDS011;58760;48.716;8.962;2023-04-05T14:08:52;11.20;;;4.18;;
71104;SDS011;58760;48.716;8.962;2023-04-05T14:11:22;9.27;;;4.03;;
71104;SDS011;58760;48.716;8.962;2023-04-05T14:13:48;6.05;;;3.60;;
71104;SDS011;58760;48.716;8.962;2023-04-05T14:16:14;9.63;;;4.03;;
71104;SDS011;58760;48.716;8.962;2023-04-05T14:21:08;7.00;;;3.78;;
71104;SDS011;58760;48.716;8.962;2023-04-05T14:23:37;8.60;;;3.28;;
71104;SDS011;58760;48.716;8.962;2023-04-05T14:28:28;7.85;;;3.47;;
71104;SDS011;58760;48.716;8.962;2023-04-05T14:30:53;7.68;;;3.72;;
71104;SDS011;58760;48.716;8.962;2023-04-05T14:33:18;8.40;;;3.40;;
71104;SDS011;58760;48.716;8.962;2023-04-05T14:35:44;8.02;;;4.47;;
71104;SDS011;58760;48.716;8.962;2023-04-05T14:38:10;9.98;;;3.67;;
71104;SDS011;58760;48.716;8.962;2023-04-05T14:40:35;9.30;;;4.40;;
71104;SDS011;58760;48.716;8.962;2023-04-05T14:45:27;9.65;;;4.20;;
71104;SDS011;58760;48.716;8.962;2023-04-05T14:50:18;6.30;;;3.33;;
71104;SDS011;58760;48.716;8.962;2023-04-05T14:55:09;8.65;;;3.83;;
71104;SDS011;58760;48.716;8.962;2023-04-05T14:57:37;8.35;;;3.90;;
71104;SDS011;58760;48.716;8.962;2023-04-05T15:00:06;7.20;;;3.58;;
71104;SDS011;58760;48.716;8.962;2023-04-05T15:02:32;11.13;;;3.85;;
71104;SDS011;58760;48.716;8.962;2023-04-05T15:04:59;8.63;;;3.78;;
71104;SDS011;58760;48.716;8.962;2023-04-05T15:09:53;7.75;;;3.90;;
71104;SDS011;58760;48.716;8.962;2023-04-05T15:14:44;7.95;;;3.20;;
71104;SDS011;58760;48.716;8.962;2023-04-05T15:17:10;7.75;;;3.88;;
71104;SDS011;58760;48.716;8.962;2023-04-05T15:19:36;7.53;;;3.30;;
71104;SDS011;58760;48.716;8.962;2023-04-05T15:24:27;6.00;;;3.70;;
71104;SDS011;58760;48.716;8.962;2023-04-05T15:26:52;7.30;;;3.85;;
71104;SDS011;58760;48.716;8.962;2023-04-05T15:29:22;7.57;;;3.78;;
71104;SDS011;58760;48.716;8.962;2023-04-05T15:34:13;7.75;;;3.60;;
71104;SDS011;58760;48.716;8.962;2023-04-05T15:39:04;8.18;;;3.70;;
71104;SDS011;58760;48.716;8.962;2023-04-05T15:43:56;8.88;;;4.07;;
71104;SDS011;58760;48.716;8.962;2023-04-05T15:46:21;6.63;;;3.92;;
71104;SDS011;58760;48.716;8.962;2023-04-05T15:51:12;8.90;;;4.15;;
71104;SDS011;58760;48.716;8.962;2023-04-05T15:53:37;9.15;;;3.78;;
71104;SDS011;58760;48.716;8.962;2023-04-05T15:56:03;7.85;;;4.10;;
71104;SDS011;58760;48.716;8.962;2023-04-05T15:58:28;8.07;;;4.15;;
71104;SDS011;58760;48.716;8.962;2023-04-05T16:00:54;7.03;;;4.00;;
71104;SDS011;58760;48.716;8.962;2023-04-05T16:03:19;8.27;;;3.80;;
71104;SDS011;58760;48.716;8.962;2023-04-05T16:05:45;8.75;;;4.00;;
71104;SDS011;58760;48.716;8.962;2023-04-05T16:08:10;11.30;;;4.30;;
71104;SDS011;58760;48.716;8.962;2023-04-05T16:10:35;9.80;;;4.00;;
71104;SDS011;58760;48.716;8.962;2023-04-05T16:13:01;9.85;;;4.10;;
71104;SDS011;58760;48.716;8.962;2023-04-05T16:15:27;8.35;;;4.43;;
71104;SDS011;58760;48.716;8.962;2023-04-05T16:17:52;9.15;;;4.20;;
71104;SDS011;58760;48.716;8.962;2023-04-05T16:20:18;7.68;;;4.43;;
71104;SDS011;58760;48.716;8.962;2023-04-05T16:22:43;9.80;;;4.35;;
71104;SDS011;58760;48.716;8.962;2023-04-05T16:25:09;13.88;;;4.28;;